Tropical Cyclones
[Index]
Main Index Home Page Stock Weather Photos Extreme Storms Discussion Storm News and Storm Chasing Reports Tropical Cyclones / Hurricanes / Typhoons Weather Data and Links Wild Fires / Bushfires Weather Observation Techniques Weather Picture Catalogue Tornado Pictures and Reports Stock Video Footage and DVDs for sale
Season 2006-2007 Tropical Cyclone ZITA Track Map
Season 2006-2007 Summaries (Operational Data): [AU] [SIO] [SPAC] [SH]
<<- Previous TC | 2006-2007 Season | Next TC ->>

click for intensity scale information  Lat/long Grid: Show Hide

 Date Labels: Show Hide

Operational Tropical Cyclone Data : JTWC Advisories

Name: ZITA
Number: 0708

17 Jan 2007 21:00 UTC to 26 Jan 2007 00:00 UTC

    date/time    lat    long     hPa   cat  kts
2007-01-17 21   12.0   174.0W   1002         20          
2007-01-18 08   12.0   177.0W   1003         20          
2007-01-18 18   12.0   177.0W   1004         20          
2007-01-19 06   13.0   175.0W   1004         20          
2007-01-19 21   13.0   174.5W   1004         20          
2007-01-20 06   13.5   171.3W   1003         20          
2007-01-20 18   13.0   168.0W   1003         20          
2007-01-20 21   12.0   166.0W   1003         20          
2007-01-21 07   12.2   164.6W   1002         30          
2007-01-21 12   12.4   163.6W   1002         30          
2007-01-21 18   11.9   162.9W   1002         30          
2007-01-22 00   12.3   161.1W   1001         30          
2007-01-22 06   12.8   160.0W   1001         30          
2007-01-22 12   13.5   158.8W   1001         30          
2007-01-22 18   14.1   157.6W   1000         30          
2007-01-22 21   14.4   156.7W    995    1    35          
2007-01-23 00   15.0   156.1W    990    1    40          
2007-01-23 06   16.1   154.5W    985    2    50          
2007-01-23 12   17.3   153.8W    975    2    60          
2007-01-23 18   20.0   151.7W    975    2    60          
2007-01-24 00   21.7   151.8W    985    2    50          
2007-01-24 06   23.4   151.2W    987    1    45          
2007-01-24 11   25.0   150.0W    990    1    45          
2007-01-24 17   27.5   150.2W    995    1    35          
2007-01-25 00   29.0   150.0W    998    1    35          
2007-01-25 06   31.0   151.0W    998    1    35          
2007-01-25 12   34.0   150.0W   1000    1    35          
2007-01-25 18   35.0   152.0W   1002    1    35          
2007-01-26 00   37.0   152.0W   1002    1    35          
Winds are 10-min average.

Tropical cyclone tracks developed by Michael Bath using operational warnings and advisories and Google Maps.


[Australian Severe Weather index] [Copyright Notice] [Email Contacts] [Search This Site] [Privacy Policy]
Document: tropical_cyclone_zita.htm Updated: 28 May 2013